createdAt,value
2018-12-05T00:02:10.274Z,9.73
2018-12-05T00:04:37.802Z,10.27
2018-12-05T00:07:05.412Z,10.20
2018-12-05T00:09:32.927Z,10.77
2018-12-05T00:12:00.442Z,9.87
2018-12-05T00:14:28.765Z,9.83
2018-12-05T00:16:56.524Z,9.33
2018-12-05T00:19:24.148Z,9.70
2018-12-05T00:21:51.644Z,9.10
2018-12-05T00:24:19.151Z,9.60
2018-12-05T00:26:46.663Z,9.10
2018-12-05T00:29:14.158Z,9.10
2018-12-05T00:31:41.662Z,8.37
2018-12-05T00:34:09.188Z,8.40
2018-12-05T00:36:36.742Z,8.80
2018-12-05T00:39:07.076Z,8.77
2018-12-05T00:41:34.589Z,8.43
2018-12-05T00:44:02.455Z,8.90
2018-12-05T00:46:29.963Z,8.30
2018-12-05T00:48:57.522Z,9.23
2018-12-05T00:51:25.214Z,8.33
2018-12-05T00:53:52.819Z,8.57
2018-12-05T00:56:20.331Z,8.87
2018-12-05T00:58:47.837Z,8.37
2018-12-05T01:01:15.334Z,8.73
2018-12-05T01:03:42.844Z,8.00
2018-12-05T01:06:10.355Z,9.07
2018-12-05T01:08:37.875Z,8.43
2018-12-05T01:11:05.383Z,9.63
2018-12-05T01:13:32.892Z,8.33
2018-12-05T01:16:00.397Z,9.67
2018-12-05T01:18:27.905Z,9.43
2018-12-05T01:20:55.425Z,9.00
2018-12-05T01:23:22.939Z,8.93
2018-12-05T01:25:50.449Z,8.80
2018-12-05T01:28:17.951Z,8.83
2018-12-05T01:30:45.533Z,9.20
2018-12-05T01:33:13.047Z,9.53
2018-12-05T01:35:40.551Z,8.67
2018-12-05T01:38:08.057Z,8.80
2018-12-05T01:40:35.595Z,8.53
2018-12-05T01:43:03.099Z,7.80
2018-12-05T01:45:30.609Z,8.17
2018-12-05T01:47:58.118Z,8.50
2018-12-05T01:50:25.618Z,8.40
2018-12-05T01:52:53.128Z,7.77
2018-12-05T01:55:20.875Z,8.13
2018-12-05T01:57:48.394Z,8.37
2018-12-05T02:00:15.906Z,8.50
2018-12-05T02:02:43.414Z,7.87
2018-12-05T02:05:10.933Z,8.60
2018-12-05T02:07:38.450Z,8.23
2018-12-05T02:10:05.968Z,8.47
2018-12-05T02:12:33.477Z,8.53
2018-12-05T02:15:00.983Z,7.83
2018-12-05T02:17:28.493Z,8.27
2018-12-05T02:19:55.988Z,8.47
2018-12-05T02:22:23.484Z,8.50
2018-12-05T02:24:50.994Z,8.47
2018-12-05T02:27:18.506Z,8.57
2018-12-05T02:30:04.687Z,8.20
2018-12-05T02:32:32.281Z,8.40
2018-12-05T02:34:59.796Z,8.30
2018-12-05T02:37:27.301Z,8.80
2018-12-05T02:39:54.814Z,8.63
2018-12-05T02:42:22.317Z,8.10
2018-12-05T02:44:49.822Z,8.90
2018-12-05T02:47:17.405Z,8.23
2018-12-05T02:49:45.043Z,9.03
2018-12-05T02:52:12.543Z,9.03
2018-12-05T02:54:40.047Z,8.50
2018-12-05T02:57:07.546Z,8.43
2018-12-05T02:59:35.049Z,7.90
2018-12-05T03:02:02.556Z,7.97
2018-12-05T03:04:30.061Z,8.13
2018-12-05T03:06:57.559Z,8.43
2018-12-05T03:09:25.068Z,7.37
2018-12-05T03:11:52.566Z,7.17
2018-12-05T03:14:20.073Z,8.13
2018-12-05T03:16:47.602Z,8.07
2018-12-05T03:19:15.122Z,7.70
2018-12-05T03:21:42.625Z,9.00
2018-12-05T03:24:10.133Z,8.27
2018-12-05T03:26:37.649Z,8.67
2018-12-05T03:29:06.814Z,8.53
2018-12-05T03:31:34.501Z,8.47
2018-12-05T03:34:02.012Z,9.20
2018-12-05T03:36:29.522Z,9.30
2018-12-05T03:38:57.048Z,8.60
2018-12-05T03:41:24.540Z,9.00
2018-12-05T03:43:52.039Z,8.33
2018-12-05T03:46:19.552Z,8.87
2018-12-05T03:48:47.069Z,9.07
2018-12-05T03:51:14.571Z,9.27
2018-12-05T03:53:42.087Z,8.93
2018-12-05T03:56:09.598Z,8.33
2018-12-05T03:58:37.128Z,9.63
2018-12-05T04:01:04.646Z,9.13
2018-12-05T04:03:32.203Z,9.00
2018-12-05T04:05:59.729Z,9.07
2018-12-05T04:08:27.345Z,9.83
2018-12-05T04:10:54.852Z,9.93
2018-12-05T04:13:22.387Z,9.60
2018-12-05T04:15:49.978Z,9.60
2018-12-05T04:18:17.497Z,8.70
2018-12-05T04:20:45.004Z,9.80
2018-12-05T04:23:12.531Z,9.93
2018-12-05T04:25:40.040Z,9.77
2018-12-05T04:28:07.535Z,9.37
2018-12-05T04:30:35.049Z,9.83
2018-12-05T04:33:02.555Z,9.37
2018-12-05T04:35:30.101Z,9.67
2018-12-05T04:37:57.620Z,9.80
2018-12-05T04:40:25.219Z,9.03
2018-12-05T04:42:52.792Z,9.13
2018-12-05T04:45:20.308Z,9.33
2018-12-05T04:47:47.816Z,9.20
2018-12-05T04:50:15.328Z,9.20
2018-12-05T04:52:42.842Z,9.37
2018-12-05T04:55:10.335Z,9.27
2018-12-05T04:57:37.842Z,9.33
2018-12-05T05:00:06.874Z,9.03
2018-12-05T05:02:34.380Z,9.30
2018-12-05T05:05:01.926Z,10.10
2018-12-05T05:07:29.441Z,10.27
2018-12-05T05:09:57.056Z,10.50
2018-12-05T05:12:24.554Z,9.83
2018-12-05T05:14:52.057Z,10.63
2018-12-05T05:17:19.640Z,10.07
2018-12-05T05:19:47.178Z,10.77
2018-12-05T05:22:14.744Z,10.00
2018-12-05T05:24:42.268Z,9.63
2018-12-05T05:27:09.778Z,10.63
2018-12-05T05:29:37.345Z,11.33
2018-12-05T05:32:04.857Z,10.37
2018-12-05T05:34:32.387Z,10.43
2018-12-05T05:36:59.893Z,10.43
2018-12-05T05:39:27.391Z,11.50
2018-12-05T05:41:54.999Z,12.13
2018-12-05T05:44:22.503Z,12.37
2018-12-05T05:46:50.022Z,10.97
2018-12-05T05:49:17.542Z,11.53
2018-12-05T05:51:45.047Z,11.10
2018-12-05T05:54:12.571Z,11.63
2018-12-05T05:56:40.085Z,11.60
2018-12-05T05:59:07.616Z,10.93
2018-12-05T06:01:35.131Z,11.20
2018-12-05T06:04:02.642Z,11.60
2018-12-05T06:06:30.158Z,12.07
2018-12-05T06:08:57.686Z,11.00
2018-12-05T06:11:25.192Z,11.60
2018-12-05T06:13:52.704Z,10.53
2018-12-05T06:16:20.210Z,11.40
2018-12-05T06:18:47.876Z,10.67
2018-12-05T06:21:15.391Z,11.43
2018-12-05T06:23:42.906Z,11.50
2018-12-05T06:26:10.415Z,10.60
2018-12-05T06:28:37.930Z,12.00
2018-12-05T06:31:05.430Z,11.27
2018-12-05T06:33:32.951Z,10.90
2018-12-05T06:36:00.457Z,10.87
2018-12-05T06:38:27.967Z,11.13
2018-12-05T06:40:55.473Z,10.70
2018-12-05T06:43:22.982Z,11.20
2018-12-05T06:45:50.512Z,10.80
2018-12-05T06:48:18.026Z,10.93
2018-12-05T06:50:45.537Z,10.50
2018-12-05T06:53:13.742Z,11.30
2018-12-05T06:55:41.339Z,11.10
2018-12-05T06:58:08.858Z,11.20
2018-12-05T07:00:36.387Z,12.13
2018-12-05T07:03:03.891Z,12.87
2018-12-05T07:05:31.418Z,11.90
2018-12-05T07:07:58.965Z,12.37
2018-12-05T07:10:26.499Z,11.77
2018-12-05T07:12:54.065Z,11.27
2018-12-05T07:15:21.605Z,11.83
2018-12-05T07:17:49.121Z,11.30
2018-12-05T07:20:16.663Z,11.37
2018-12-05T07:22:44.157Z,11.90
2018-12-05T07:25:11.672Z,12.07
2018-12-05T07:27:39.177Z,12.33
2018-12-05T07:30:06.686Z,11.47
2018-12-05T07:32:34.235Z,12.23
2018-12-05T07:35:01.763Z,11.10
2018-12-05T07:37:29.285Z,10.53
2018-12-05T07:39:56.795Z,10.37
2018-12-05T07:42:24.469Z,10.23
2018-12-05T07:44:51.984Z,10.63
2018-12-05T07:47:19.488Z,10.33
2018-12-05T07:49:47.014Z,10.43
2018-12-05T07:52:14.529Z,10.77
2018-12-05T07:54:42.041Z,10.93
2018-12-05T07:57:09.571Z,10.87
2018-12-05T07:59:37.115Z,11.23
2018-12-05T08:02:04.620Z,10.73
2018-12-05T08:04:32.148Z,10.43
2018-12-05T08:06:59.670Z,11.83
2018-12-05T08:09:27.178Z,9.90
2018-12-05T08:11:54.684Z,10.67
2018-12-05T08:14:22.193Z,9.93
2018-12-05T08:16:49.707Z,10.50
2018-12-05T08:19:17.222Z,11.10
2018-12-05T08:21:44.782Z,10.47
2018-12-05T08:24:12.291Z,10.50
2018-12-05T08:26:39.797Z,10.07
2018-12-05T08:29:07.496Z,10.90
2018-12-05T08:31:35.098Z,10.13
2018-12-05T08:34:02.623Z,9.60
2018-12-05T08:36:30.136Z,10.37
2018-12-05T08:38:57.651Z,10.93
2018-12-05T08:41:25.157Z,9.97
2018-12-05T08:43:52.676Z,10.20
2018-12-05T08:46:20.180Z,10.20
2018-12-05T08:48:47.700Z,11.00
2018-12-05T08:51:15.206Z,10.60
2018-12-05T08:53:42.703Z,10.67
2018-12-05T08:56:10.233Z,10.20
2018-12-05T08:58:37.758Z,10.67
2018-12-05T09:01:05.262Z,11.10
2018-12-05T09:03:32.764Z,11.03
2018-12-05T09:06:00.296Z,10.43
2018-12-05T09:08:27.806Z,11.53
2018-12-05T09:10:55.382Z,11.60
2018-12-05T09:13:22.906Z,11.50
2018-12-05T09:15:50.412Z,11.40
2018-12-05T09:18:17.932Z,10.57
2018-12-05T09:20:45.450Z,11.53
2018-12-05T09:23:12.961Z,11.53
2018-12-05T09:25:40.470Z,11.57
2018-12-05T09:28:08.047Z,12.03
2018-12-05T09:30:35.575Z,11.63
2018-12-05T09:33:03.109Z,11.83
2018-12-05T09:35:30.615Z,12.63
2018-12-05T09:37:58.124Z,12.47
2018-12-05T09:40:25.639Z,13.23
2018-12-05T09:42:53.161Z,14.10
2018-12-05T09:45:20.671Z,12.40
2018-12-05T09:47:48.351Z,13.33
2018-12-05T09:50:16.907Z,11.93
2018-12-05T09:52:44.525Z,13.33
2018-12-05T09:55:12.160Z,13.10
2018-12-05T09:57:39.805Z,13.33
2018-12-05T10:00:08.469Z,13.10
2018-12-05T10:02:36.013Z,12.27
2018-12-05T10:05:04.689Z,12.77
2018-12-05T10:07:32.255Z,13.30
2018-12-05T10:09:59.778Z,12.73
2018-12-05T10:12:27.305Z,11.83
2018-12-05T10:14:54.817Z,12.07
2018-12-05T10:17:22.331Z,12.80
2018-12-05T10:19:49.839Z,12.93
2018-12-05T10:22:17.356Z,13.53
2018-12-05T10:24:44.909Z,12.07
2018-12-05T10:27:12.429Z,12.97
2018-12-05T10:29:39.961Z,13.63
2018-12-05T10:32:07.521Z,12.80
2018-12-05T10:34:35.050Z,14.20
2018-12-05T10:37:02.553Z,13.47
2018-12-05T10:39:30.071Z,13.27
2018-12-05T10:41:57.603Z,13.63
2018-12-05T10:44:25.129Z,15.27
2018-12-05T10:46:52.665Z,14.43
2018-12-05T10:49:20.211Z,13.63
2018-12-05T10:51:47.718Z,13.63
2018-12-05T10:54:15.232Z,12.13
2018-12-05T10:56:42.740Z,13.20
2018-12-05T10:59:10.246Z,13.63
2018-12-05T11:01:43.475Z,12.50
2018-12-05T11:04:21.586Z,13.10
2018-12-05T11:06:54.983Z,12.70
2018-12-05T11:09:28.169Z,12.30
2018-12-05T11:15:03.449Z,12.10
2018-12-05T11:17:36.658Z,11.33
2018-12-05T11:20:11.145Z,10.60
2018-12-05T11:22:44.296Z,10.50
2018-12-05T11:25:12.590Z,10.20
2018-12-05T11:27:40.115Z,11.03
2018-12-05T11:30:07.738Z,10.43
2018-12-05T11:32:35.264Z,9.93
2018-12-05T11:35:02.784Z,10.10
2018-12-05T11:37:30.299Z,10.00
2018-12-05T11:39:57.869Z,10.03
2018-12-05T11:42:25.480Z,10.03
2018-12-05T11:44:53.008Z,10.03
2018-12-05T11:47:20.537Z,10.03
2018-12-05T11:49:48.045Z,9.00
2018-12-05T11:52:15.742Z,9.13
2018-12-05T11:54:43.259Z,9.10
2018-12-05T11:57:10.777Z,9.40
2018-12-05T11:59:38.289Z,9.97
2018-12-05T12:02:05.805Z,9.53
2018-12-05T12:04:33.323Z,9.27
2018-12-05T12:07:00.837Z,9.27
2018-12-05T12:09:28.373Z,9.73
2018-12-05T12:11:55.886Z,9.37
2018-12-05T12:14:23.402Z,9.80
2018-12-05T12:16:50.929Z,10.40
2018-12-05T12:19:18.443Z,9.33
2018-12-05T12:21:46.195Z,8.43
2018-12-05T12:24:13.717Z,8.90
2018-12-05T12:26:41.237Z,9.23
2018-12-05T12:29:08.766Z,8.80
2018-12-05T12:31:36.294Z,9.30
2018-12-05T12:34:03.819Z,8.90
2018-12-05T12:36:31.344Z,8.70
2018-12-05T12:38:58.863Z,9.43
2018-12-05T12:41:26.422Z,8.23
2018-12-05T12:43:53.933Z,8.77
2018-12-05T12:46:21.455Z,8.83
2018-12-05T12:48:48.966Z,9.07
2018-12-05T12:51:16.488Z,8.70
2018-12-05T12:53:44.010Z,8.47
2018-12-05T12:56:11.538Z,8.83
2018-12-05T12:58:39.055Z,8.63
2018-12-05T13:01:06.704Z,8.53
2018-12-05T13:03:34.220Z,8.60
2018-12-05T13:06:01.739Z,9.23
2018-12-05T13:08:29.254Z,9.23
2018-12-05T13:10:56.774Z,9.07
2018-12-05T13:13:24.304Z,8.47
2018-12-05T13:15:51.822Z,9.83
2018-12-05T13:18:19.858Z,9.17
2018-12-05T13:20:47.416Z,8.17
2018-12-05T13:23:14.929Z,8.17
2018-12-05T13:25:42.431Z,8.50
2018-12-05T13:28:09.934Z,8.07
2018-12-05T13:30:37.447Z,8.80
2018-12-05T13:33:04.952Z,8.33
2018-12-05T13:35:32.468Z,8.70
2018-12-05T13:38:00.018Z,8.33
2018-12-05T13:40:27.603Z,8.33
2018-12-05T13:42:55.111Z,8.77
2018-12-05T13:45:22.633Z,8.27
2018-12-05T13:47:50.175Z,9.23
2018-12-05T13:50:17.782Z,9.77
2018-12-05T13:52:45.298Z,9.30
2018-12-05T13:55:12.802Z,8.60
2018-12-05T13:57:40.320Z,8.40
2018-12-05T14:00:07.908Z,7.97
2018-12-05T14:02:35.420Z,8.20
2018-12-05T14:05:02.948Z,8.00
2018-12-05T14:07:32.097Z,8.13
2018-12-05T14:09:59.803Z,11.53
2018-12-05T14:12:27.496Z,8.50
2018-12-05T14:14:55.271Z,7.77
2018-12-05T14:17:22.811Z,7.57
2018-12-05T14:19:50.343Z,7.67
2018-12-05T14:22:17.863Z,7.37
2018-12-05T14:24:45.393Z,8.13
2018-12-05T14:27:12.991Z,7.67
2018-12-05T14:29:40.484Z,8.20
2018-12-05T14:32:08.022Z,7.37
2018-12-05T14:34:35.529Z,7.40
2018-12-05T14:37:03.042Z,7.30
2018-12-05T14:39:30.585Z,6.90
2018-12-05T14:41:58.133Z,7.23
2018-12-05T14:44:25.635Z,7.90
2018-12-05T14:46:53.145Z,7.97
2018-12-05T14:49:20.661Z,7.90
2018-12-05T14:51:48.168Z,8.70
2018-12-05T14:54:15.679Z,8.37
2018-12-05T14:56:43.203Z,8.17
2018-12-05T14:59:10.707Z,8.70
2018-12-05T15:01:38.249Z,8.17
2018-12-05T15:04:05.769Z,7.73
2018-12-05T15:06:33.590Z,7.77
2018-12-05T15:09:01.276Z,6.40
2018-12-05T15:11:28.797Z,7.57
2018-12-05T15:13:56.316Z,7.50
2018-12-05T15:16:23.908Z,7.80
2018-12-05T15:18:51.576Z,7.50
2018-12-05T15:21:19.074Z,7.20
2018-12-05T15:23:46.600Z,6.90
2018-12-05T15:26:14.127Z,6.97
2018-12-05T15:28:41.792Z,7.83
2018-12-05T15:31:09.364Z,7.17
2018-12-05T15:33:37.008Z,7.47
2018-12-05T15:36:04.571Z,6.93
2018-12-05T15:38:32.106Z,6.77
2018-12-05T15:40:59.829Z,7.47
2018-12-05T15:43:27.343Z,7.70
2018-12-05T15:45:54.857Z,8.17
2018-12-05T15:48:22.453Z,6.87
2018-12-05T15:50:49.961Z,7.20
2018-12-05T15:53:17.471Z,7.63
2018-12-05T15:55:45.037Z,6.37
2018-12-05T15:58:12.674Z,7.50
2018-12-05T16:00:40.217Z,7.00
2018-12-05T16:03:07.743Z,7.33
2018-12-05T16:05:35.259Z,7.10
2018-12-05T16:08:02.789Z,6.93
2018-12-05T16:10:30.306Z,7.47
2018-12-05T16:12:57.817Z,7.17
2018-12-05T16:15:25.337Z,6.33
2018-12-05T16:17:52.888Z,7.07
2018-12-05T16:20:20.422Z,7.63
2018-12-05T16:22:47.954Z,7.63
2018-12-05T16:25:15.534Z,7.10
2018-12-05T16:27:43.054Z,6.57
2018-12-05T16:30:10.580Z,7.63
2018-12-05T16:32:38.102Z,7.83
2018-12-05T16:35:05.614Z,7.57
2018-12-05T16:37:33.125Z,7.03
2018-12-05T16:40:00.645Z,7.10
2018-12-05T16:42:28.154Z,7.20
2018-12-05T16:44:55.711Z,7.40
2018-12-05T16:47:23.222Z,7.43
2018-12-05T16:49:50.745Z,7.93
2018-12-05T16:52:18.267Z,8.20
2018-12-05T16:54:49.218Z,7.80
2018-12-05T16:57:16.790Z,8.33
2018-12-05T16:59:44.373Z,8.30
2018-12-05T17:02:11.887Z,8.77
2018-12-05T17:04:39.419Z,9.00
2018-12-05T17:07:06.950Z,8.67
2018-12-05T17:09:34.474Z,8.97
2018-12-05T17:12:02.005Z,8.37
2018-12-05T17:14:29.548Z,8.20
2018-12-05T17:16:57.071Z,8.27
2018-12-05T17:19:24.585Z,8.83
2018-12-05T17:21:52.117Z,8.17
2018-12-05T17:24:19.625Z,8.47
2018-12-05T17:26:47.156Z,9.33
2018-12-05T17:29:14.692Z,8.83
2018-12-05T17:31:42.220Z,8.03
2018-12-05T17:34:09.728Z,8.57
2018-12-05T17:36:37.292Z,7.87
2018-12-05T17:39:07.330Z,8.63
2018-12-05T17:41:34.898Z,40.93
2018-12-05T17:44:02.522Z,24.10
2018-12-05T17:46:30.056Z,11.50
2018-12-05T17:48:57.556Z,9.40
2018-12-05T17:51:25.179Z,8.30
2018-12-05T17:53:52.714Z,8.20
2018-12-05T17:56:20.244Z,8.03
2018-12-05T17:58:47.763Z,8.10
2018-12-05T18:01:15.286Z,7.60
2018-12-05T18:03:42.816Z,7.23
2018-12-05T18:06:10.349Z,7.10
2018-12-05T18:08:37.928Z,6.73
2018-12-05T18:11:05.513Z,7.20
2018-12-05T18:13:33.051Z,7.20
2018-12-05T18:16:00.627Z,7.60
2018-12-05T18:18:28.183Z,7.03
2018-12-05T18:20:55.712Z,7.37
2018-12-05T18:23:23.216Z,8.77
2018-12-05T18:25:50.732Z,8.30
2018-12-05T18:28:18.251Z,7.60
2018-12-05T18:30:45.766Z,7.70
2018-12-05T18:33:13.295Z,7.80
2018-12-05T18:35:40.810Z,7.20
2018-12-05T18:38:08.324Z,7.37
2018-12-05T18:40:35.954Z,7.67
2018-12-05T18:43:03.511Z,7.73
2018-12-05T18:45:31.468Z,7.13
2018-12-05T18:47:59.185Z,7.70
2018-12-05T18:50:26.844Z,7.50
2018-12-05T18:52:54.373Z,7.10
2018-12-05T18:55:21.896Z,6.60
2018-12-05T18:57:49.425Z,7.43
2018-12-05T19:00:16.958Z,7.67
2018-12-05T19:02:44.472Z,6.87
2018-12-05T19:05:12.003Z,7.80
2018-12-05T19:07:39.523Z,7.07
2018-12-05T19:10:07.034Z,7.17
2018-12-05T19:12:34.552Z,6.50
2018-12-05T19:15:02.072Z,7.60
2018-12-05T19:17:29.595Z,10.73
2018-12-05T19:19:57.127Z,7.70
2018-12-05T19:22:24.668Z,12.90
2018-12-05T19:24:52.191Z,9.37
2018-12-05T19:27:19.716Z,7.70
2018-12-05T19:29:47.230Z,8.43
2018-12-05T19:32:14.810Z,8.50
2018-12-05T19:34:42.329Z,12.30
2018-12-05T19:37:09.853Z,9.40
2018-12-05T19:39:37.362Z,7.70
2018-12-05T19:42:04.904Z,11.03
2018-12-05T19:44:32.416Z,8.87
2018-12-05T19:46:59.937Z,7.40
2018-12-05T19:49:27.456Z,16.70
2018-12-05T19:51:55.002Z,11.20
2018-12-05T19:54:22.552Z,10.70
2018-12-05T19:56:50.076Z,17.27
2018-12-05T19:59:17.594Z,11.93
2018-12-05T20:01:45.106Z,15.37
2018-12-05T20:04:12.620Z,17.17
2018-12-05T20:06:40.154Z,8.47
2018-12-05T20:09:07.691Z,11.73
2018-12-05T20:11:35.216Z,12.77
2018-12-05T20:14:02.744Z,10.70
2018-12-05T20:16:30.271Z,24.20
2018-12-05T20:18:57.808Z,18.70
2018-12-05T20:21:25.344Z,18.37
2018-12-05T20:23:52.920Z,26.53
2018-12-05T20:26:20.550Z,65.97
2018-12-05T20:28:48.160Z,49.13
2018-12-05T20:31:15.733Z,69.03
2018-12-05T20:33:43.269Z,54.80
2018-12-05T20:36:10.805Z,32.87
2018-12-05T20:38:38.335Z,92.80
2018-12-05T20:41:05.861Z,22.00
2018-12-05T20:43:33.370Z,20.50
2018-12-05T20:46:00.913Z,19.87
2018-12-05T20:48:28.493Z,17.47
2018-12-05T20:50:56.120Z,23.57
2018-12-05T20:53:23.632Z,15.13
2018-12-05T20:55:51.241Z,16.80
2018-12-05T20:58:18.768Z,17.87
2018-12-05T21:00:46.326Z,15.23
2018-12-05T21:03:13.844Z,15.43
2018-12-05T21:05:41.366Z,20.30
2018-12-05T21:08:08.944Z,12.40
2018-12-05T21:10:36.475Z,12.03
2018-12-05T21:13:03.990Z,18.83
2018-12-05T21:15:31.514Z,13.73
2018-12-05T21:17:59.078Z,15.97
2018-12-05T21:20:26.594Z,14.20
2018-12-05T21:22:54.254Z,15.30
2018-12-05T21:25:21.767Z,13.17
2018-12-05T21:27:49.303Z,14.37
2018-12-05T21:30:16.827Z,25.30
2018-12-05T21:32:44.363Z,21.57
2018-12-05T21:35:11.928Z,18.27
2018-12-05T21:37:39.443Z,27.27
2018-12-05T21:40:06.969Z,15.53
2018-12-05T21:42:34.493Z,12.17
2018-12-05T21:45:02.031Z,12.00
2018-12-05T21:47:29.547Z,13.37
2018-12-05T21:49:57.066Z,13.77
2018-12-05T21:52:24.589Z,22.03
2018-12-05T21:54:52.121Z,32.27
2018-12-05T21:57:19.629Z,30.40
2018-12-05T21:59:47.153Z,30.90
2018-12-05T22:02:14.661Z,27.00
2018-12-05T22:04:42.170Z,27.60
2018-12-05T22:07:09.698Z,19.67
2018-12-05T22:09:37.219Z,32.33
2018-12-05T22:12:04.753Z,21.27
2018-12-05T22:14:32.290Z,14.33
2018-12-05T22:16:59.821Z,18.40
2018-12-05T22:19:27.336Z,17.27
2018-12-05T22:21:54.852Z,17.97
2018-12-05T22:24:22.368Z,16.57
2018-12-05T22:26:49.892Z,18.50
2018-12-05T22:29:17.444Z,18.57
2018-12-05T22:31:44.954Z,17.70
2018-12-05T22:34:12.750Z,15.80
2018-12-05T22:36:40.274Z,18.63
2018-12-05T22:39:08.138Z,18.47
2018-12-05T22:41:35.753Z,12.83
2018-12-05T22:44:03.326Z,14.07
2018-12-05T22:46:30.949Z,15.27
2018-12-05T22:48:58.471Z,14.67
2018-12-05T22:51:25.991Z,17.40
2018-12-05T22:53:53.502Z,13.63
2018-12-05T22:56:21.016Z,16.77
2018-12-05T22:58:48.612Z,19.10
2018-12-05T23:01:16.131Z,20.80
2018-12-05T23:03:43.735Z,23.87
2018-12-05T23:06:11.259Z,25.63
2018-12-05T23:08:38.853Z,29.63
2018-12-05T23:11:06.360Z,30.60
2018-12-05T23:13:33.885Z,33.80
2018-12-05T23:16:01.416Z,19.30
2018-12-05T23:18:28.927Z,22.73
2018-12-05T23:20:56.443Z,31.13
2018-12-05T23:23:23.949Z,33.73
2018-12-05T23:25:51.487Z,28.13
2018-12-05T23:28:19.003Z,34.27
2018-12-05T23:30:46.591Z,28.87
2018-12-05T23:33:14.105Z,34.47
2018-12-05T23:35:41.642Z,32.30
2018-12-05T23:38:09.163Z,31.40
2018-12-05T23:40:36.715Z,48.10
2018-12-05T23:43:04.314Z,51.37
2018-12-05T23:45:31.818Z,83.60
2018-12-05T23:47:59.344Z,85.30
2018-12-05T23:50:26.878Z,51.03
2018-12-05T23:52:54.390Z,31.97
2018-12-05T23:55:21.896Z,29.80
2018-12-05T23:57:49.418Z,53.97
